Time;durP1;ratioP1;P1;durP2;ratioP2;P2;SDS_P1;SDS_P2;PMS_P1;PMS_P2;Temp;Humidity;BMP_temperature;BMP_pressure;BME280_temperature;BME280_humidity;BME280_pressure;Samples;Min_cycle;Max_cycle;Signal;HPM_P1;HPM_P2
2023/09/17 00:01:49;;;;;;;6.47;3.85;;;22.20;65.30;;;;;;5092541;28;20249;-56
2023/09/17 00:04:17;;;;;;;7.53;3.65;;;22.20;65.30;;;;;;5092321;28;20269;-56
2023/09/17 00:06:44;;;;;;;6.88;3.70;;;22.20;65.30;;;;;;5092518;28;20224;-55
2023/09/17 00:09:11;;;;;;;7.57;3.42;;;22.30;65.50;;;;;;5092217;28;20193;-58
2023/09/17 00:11:40;;;;;;;6.60;3.70;;;22.30;65.50;;;;;;5091542;28;20201;-54
2023/09/17 00:14:08;;;;;;;5.30;3.63;;;22.30;65.50;;;;;;5092500;28;20342;-58
2023/09/17 00:16:38;;;;;;;7.07;3.83;;;22.30;65.60;;;;;;5092368;28;20445;-58
2023/09/17 00:19:05;;;;;;;8.98;3.90;;;22.30;65.60;;;;;;5091776;28;20249;-57
2023/09/17 00:24:14;;;;;;;6.45;3.92;;;22.30;65.60;;;;;;5074727;28;20566;-56
2023/09/17 00:26:42;;;;;;;5.65;3.75;;;22.30;65.60;;;;;;5091204;28;20229;-57
2023/09/17 00:29:09;;;;;;;5.80;3.78;;;22.30;65.70;;;;;;5092539;28;20201;-56
2023/09/17 00:31:37;;;;;;;5.32;3.55;;;22.30;65.70;;;;;;5092555;28;20287;-58
2023/09/17 00:36:55;;;;;;;8.43;4.50;;;22.20;65.70;;;;;;5088221;28;20214;-56
2023/09/17 00:39:22;;;;;;;7.43;3.63;;;22.30;65.80;;;;;;5092221;28;20317;-59
2023/09/17 00:41:52;;;;;;;5.32;3.45;;;22.30;65.90;;;;;;5091396;28;20249;-59
2023/09/17 00:44:19;;;;;;;9.95;4.15;;;22.30;65.90;;;;;;5091798;28;20651;-55
2023/09/17 00:46:46;;;;;;;6.57;3.85;;;22.30;65.90;;;;;;5092195;28;20635;-59
2023/09/17 00:49:14;;;;;;;9.20;3.90;;;22.20;65.80;;;;;;5091889;28;20194;-59
2023/09/17 00:51:41;;;;;;;7.22;3.67;;;22.30;65.90;;;;;;5091771;28;20644;-59
2023/09/17 00:54:11;;;;;;;7.80;3.95;;;22.30;66.00;;;;;;5091716;28;20290;-60
2023/09/17 00:56:38;;;;;;;6.93;3.67;;;22.30;66.00;;;;;;5091280;28;20251;-57
2023/09/17 00:59:07;;;;;;;7.70;3.83;;;22.30;66.00;;;;;;5091649;28;20770;-60
2023/09/17 01:01:36;;;;;;;6.10;3.70;;;22.30;66.00;;;;;;5091616;28;20555;-59
2023/09/17 01:04:04;;;;;;;7.22;4.03;;;22.30;66.00;;;;;;5093603;28;20218;-57
2023/09/17 01:06:46;;;;;;;7.97;3.75;;;22.30;66.10;;;;;;5095696;28;20248;-54
2023/09/17 01:09:14;;;;;;;7.43;3.90;;;22.30;66.10;;;;;;5092356;28;20230;-58
2023/09/17 01:11:41;;;;;;;13.43;4.03;;;22.30;66.10;;;;;;5094849;28;20222;-56
2023/09/17 01:17:15;;;;;;;7.07;4.03;;;22.30;66.30;;;;;;5077167;28;20233;-56
2023/09/17 01:19:43;;;;;;;5.53;3.92;;;22.30;66.30;;;;;;5095338;28;20329;-56
2023/09/17 01:22:18;;;;;;;8.55;4.10;;;22.20;66.20;;;;;;5095444;28;20228;-58
2023/09/17 01:24:51;;;;;;;6.35;3.65;;;22.20;66.20;;;;;;5095352;28;20186;-56
2023/09/17 01:27:20;;;;;;;5.55;3.70;;;22.30;66.40;;;;;;5094566;28;20291;-55
2023/09/17 01:29:48;;;;;;;7.03;4.00;;;22.20;66.30;;;;;;5095518;28;20197;-57
2023/09/17 01:32:16;;;;;;;6.25;4.10;;;22.20;66.30;;;;;;5095214;28;20266;-58
2023/09/17 01:34:52;;;;;;;7.97;3.92;;;22.30;66.50;;;;;;5095303;28;20218;-58
2023/09/17 01:37:27;;;;;;;7.55;3.88;;;22.30;66.50;;;;;;5095217;28;20321;-59
2023/09/17 01:39:58;;;;;;;6.82;4.20;;;22.30;66.50;;;;;;5094929;28;20647;-57
2023/09/17 01:42:28;;;;;;;12.73;4.25;;;22.20;66.40;;;;;;5094576;28;20236;-57
2023/09/17 01:44:56;;;;;;;6.68;4.35;;;22.30;66.50;;;;;;5095073;28;20197;-58
2023/09/17 01:47:24;;;;;;;7.13;4.05;;;22.20;66.50;;;;;;5094806;28;20267;-57
2023/09/17 01:50:04;;;;;;;7.72;4.20;;;22.30;66.60;;;;;;5094688;28;20727;-58
2023/09/17 01:52:34;;;;;;;9.52;4.15;;;22.20;66.50;;;;;;5094982;28;20292;-56
2023/09/17 01:55:02;;;;;;;8.40;4.40;;;22.20;66.50;;;;;;5094660;28;20190;-57
2023/09/17 01:57:46;;;;;;;12.20;4.22;;;22.20;66.60;;;;;;5093745;28;20214;-57
2023/09/17 02:00:21;;;;;;;12.05;4.40;;;22.20;66.60;;;;;;5091750;28;20647;-56
2023/09/17 02:02:52;;;;;;;9.13;4.30;;;22.20;66.60;;;;;;5094522;28;20301;-56
2023/09/17 02:05:24;;;;;;;9.70;4.50;;;22.20;66.70;;;;;;5094368;28;20273;-57
2023/09/17 02:07:51;;;;;;;8.13;4.40;;;22.20;66.70;;;;;;5094706;28;20210;-56
2023/09/17 02:10:18;;;;;;;8.52;4.40;;;22.20;66.70;;;;;;5093825;28;20277;-55
2023/09/17 02:12:47;;;;;;;8.52;4.88;;;22.20;66.70;;;;;;5094621;28;20225;-59
2023/09/17 02:15:16;;;;;;;8.45;4.45;;;22.20;66.80;;;;;;5093229;28;20187;-58
2023/09/17 02:17:46;;;;;;;5.38;3.65;;;22.20;66.70;;;;;;5093924;28;20210;-57
2023/09/17 02:20:13;;;;;;;8.30;4.32;;;22.10;66.60;;;;;;5093955;28;20714;-54
2023/09/17 02:22:43;;;;;;;7.53;4.20;;;22.20;66.80;;;;;;5094381;28;20213;-55
2023/09/17 02:25:11;;;;;;;10.30;4.15;;;22.20;67.60;;;;;;5093604;28;20274;-56
2023/09/17 02:27:42;;;;;;;10.82;5.00;;;22.20;66.90;;;;;;5094008;28;20237;-56
2023/09/17 02:30:20;;;;;;;7.25;4.38;;;22.20;66.90;;;;;;5094137;28;20186;-57
2023/09/17 02:32:50;;;;;;;9.85;4.20;;;22.20;66.90;;;;;;5094096;28;20305;-53
2023/09/17 02:35:17;;;;;;;11.05;5.03;;;22.20;66.90;;;;;;5093755;28;20647;-56
2023/09/17 02:37:45;;;;;;;12.65;4.78;;;22.20;66.90;;;;;;5094027;28;20284;-54
2023/09/17 02:40:12;;;;;;;7.82;4.47;;;22.20;67.00;;;;;;5092769;28;20264;-53
2023/09/17 02:42:39;;;;;;;8.65;4.25;;;22.20;67.00;;;;;;5094009;28;20309;-56
2023/09/17 02:45:08;;;;;;;12.32;5.25;;;22.20;66.90;;;;;;5093561;28;20226;-55
2023/09/17 02:47:42;;;;;;;12.40;4.65;;;22.20;67.10;;;;;;5094070;28;20232;-58
2023/09/17 02:50:10;;;;;;;10.05;4.97;;;22.20;67.00;;;;;;5093819;28;20236;-57
2023/09/17 02:52:37;;;;;;;8.43;4.88;;;22.20;67.00;;;;;;5093314;28;20775;-56
2023/09/17 02:55:05;;;;;;;6.43;4.53;;;22.10;66.90;;;;;;5092875;28;20259;-57
2023/09/17 02:57:32;;;;;;;8.25;4.28;;;22.20;67.10;;;;;;5093314;28;20214;-58
2023/09/17 02:59:59;;;;;;;9.55;4.95;;;22.20;67.10;;;;;;5093134;28;20271;-55
2023/09/17 03:02:26;;;;;;;7.72;5.00;;;22.20;67.20;;;;;;5099661;28;20221;-55
2023/09/17 03:04:59;;;;;;;8.57;4.85;;;22.10;67.00;;;;;;5098328;28;20198;-56
2023/09/17 03:07:27;;;;;;;10.30;4.43;;;22.20;67.30;;;;;;5112457;28;20228;-56
2023/09/17 03:09:59;;;;;;;8.88;5.18;;;22.20;67.30;;;;;;5109257;28;20201;-54
2023/09/17 03:12:27;;;;;;;9.05;4.93;;;22.20;67.30;;;;;;5085408;28;20645;-56
2023/09/17 03:14:57;;;;;;;8.90;5.15;;;22.20;67.30;;;;;;5093289;28;20236;-57
2023/09/17 03:17:24;;;;;;;12.68;5.07;;;22.20;67.30;;;;;;5085104;28;20219;-58
2023/09/17 03:19:53;;;;;;;9.35;4.88;;;22.20;67.40;;;;;;5093159;28;20301;-58
2023/09/17 03:22:20;;;;;;;12.35;4.95;;;22.20;67.40;;;;;;5093214;28;20301;-59
2023/09/17 03:24:48;;;;;;;8.20;4.90;;;22.20;67.40;;;;;;5092491;28;20217;-56
2023/09/17 03:27:15;;;;;;;13.45;5.55;;;22.10;67.30;;;;;;5092519;28;20316;-57
2023/09/17 03:29:42;;;;;;;9.90;5.50;;;22.20;67.50;;;;;;5093235;28;20194;-55
2023/09/17 03:32:09;;;;;;;11.40;5.60;;;22.20;67.40;;;;;;5092579;28;20783;-60
2023/09/17 03:34:36;;;;;;;9.05;5.43;;;22.20;67.40;;;;;;5092990;28;20274;-59
2023/09/17 03:37:05;;;;;;;9.27;5.22;;;22.10;67.30;;;;;;5092883;28;20204;-55
2023/09/17 03:39:35;;;;;;;10.88;6.00;;;22.20;67.50;;;;;;5092600;28;20218;-60
2023/09/17 03:42:06;;;;;;;13.73;5.45;;;22.20;67.60;;;;;;5092024;28;20191;-59
2023/09/17 03:44:36;;;;;;;10.95;5.65;;;22.20;67.60;;;;;;5092745;28;20190;-58
2023/09/17 03:47:04;;;;;;;11.18;5.90;;;22.10;67.50;;;;;;5092263;28;20670;-58
2023/09/17 03:49:31;;;;;;;11.75;5.55;;;22.20;67.60;;;;;;5092711;28;20194;-57
2023/09/17 03:52:04;;;;;;;11.45;5.50;;;22.10;67.60;;;;;;5092691;28;20194;-57
2023/09/17 03:54:33;;;;;;;10.55;5.53;;;22.20;67.60;;;;;;5091947;28;20682;-56
2023/09/17 03:57:01;;;;;;;10.05;5.40;;;22.20;67.70;;;;;;5092454;28;20196;-54
2023/09/17 03:59:29;;;;;;;13.07;5.97;;;22.10;67.60;;;;;;5092217;28;20218;-55
2023/09/17 04:01:56;;;;;;;10.38;5.03;;;22.10;67.60;;;;;;5092264;28;20181;-58
2023/09/17 04:04:23;;;;;;;8.90;5.20;;;22.20;67.70;;;;;;5084274;28;20200;-57
2023/09/17 04:06:51;;;;;;;11.95;5.75;;;22.20;68.60;;;;;;5091827;28;20243;-55
2023/09/17 04:09:18;;;;;;;11.48;5.93;;;22.10;67.70;;;;;;5092252;28;20279;-55
2023/09/17 04:11:49;;;;;;;9.40;5.65;;;22.10;67.60;;;;;;5091914;28;20236;-58
2023/09/17 04:14:16;;;;;;;12.02;5.30;;;22.10;67.70;;;;;;5092501;28;20271;-58
2023/09/17 04:16:43;;;;;;;11.43;5.60;;;22.20;67.90;;;;;;5092306;28;20221;-58
2023/09/17 04:19:11;;;;;;;10.23;5.68;;;22.10;67.70;;;;;;5092242;28;20713;-55
2023/09/17 04:21:38;;;;;;;11.18;5.40;;;22.20;68.00;;;;;;5092353;28;20244;-56
2023/09/17 04:24:05;;;;;;;9.70;5.63;;;22.20;68.80;;;;;;5092179;28;20301;-57
2023/09/17 04:26:32;;;;;;;13.43;5.45;;;22.10;67.80;;;;;;5091536;28;20222;-56
2023/09/17 04:29:00;;;;;;;10.40;5.65;;;22.10;68.00;;;;;;5092449;28;20217;-57
2023/09/17 04:31:27;;;;;;;8.35;5.45;;;22.10;67.90;;;;;;5092086;28;20186;-58
2023/09/17 04:33:54;;;;;;;10.05;5.43;;;22.10;68.10;;;;;;5092439;28;20224;-56
2023/09/17 04:36:22;;;;;;;9.75;5.68;;;22.10;68.00;;;;;;5091906;28;20194;-58
2023/09/17 04:38:49;;;;;;;10.57;6.22;;;22.10;68.10;;;;;;5093644;28;20213;-56
2023/09/17 04:41:16;;;;;;;7.95;5.47;;;22.10;68.10;;;;;;5095688;28;20294;-56
2023/09/17 04:43:43;;;;;;;10.57;5.63;;;22.10;68.10;;;;;;5096089;28;20715;-57
2023/09/17 04:46:11;;;;;;;14.82;6.25;;;22.10;68.10;;;;;;5096032;28;20240;-58
2023/09/17 04:48:39;;;;;;;12.38;6.07;;;22.10;68.10;;;;;;5096132;28;20224;-58
2023/09/17 04:51:06;;;;;;;9.50;5.88;;;22.10;68.10;;;;;;5096122;28;20222;-58
2023/09/17 04:53:33;;;;;;;11.45;6.20;;;22.10;68.10;;;;;;5095607;28;20224;-56
2023/09/17 04:56:01;;;;;;;9.38;6.00;;;22.10;68.20;;;;;;5095437;28;20182;-60
2023/09/17 04:58:28;;;;;;;9.48;5.47;;;22.10;68.20;;;;;;5095862;28;20225;-65
2023/09/17 05:00:55;;;;;;;9.95;5.68;;;22.10;68.20;;;;;;5095580;28;20295;-62
2023/09/17 05:03:24;;;;;;;13.00;6.40;;;22.10;68.20;;;;;;5087276;28;20293;-62
2023/09/17 05:05:51;;;;;;;10.65;6.00;;;22.20;68.30;;;;;;5095494;28;20365;-63
2023/09/17 05:08:19;;;;;;;9.00;6.03;;;22.10;68.20;;;;;;5095632;28;20224;-57
2023/09/17 05:10:46;;;;;;;11.57;6.15;;;22.10;68.20;;;;;;5095273;28;20196;-62
2023/09/17 05:13:13;;;;;;;11.38;6.07;;;22.10;69.00;;;;;;5095860;28;20225;-59
2023/09/17 05:15:40;;;;;;;11.15;6.35;;;22.10;68.20;;;;;;5095481;28;20194;-62
2023/09/17 05:18:09;;;;;;;9.35;6.38;;;22.10;68.20;;;;;;5095734;28;20213;-63
2023/09/17 05:20:41;;;;;;;12.27;6.10;;;22.10;68.20;;;;;;5095528;28;20328;-63
2023/09/17 05:23:08;;;;;;;9.40;5.70;;;22.10;68.20;;;;;;5095353;28;20582;-57
2023/09/17 05:25:35;;;;;;;12.43;6.38;;;22.10;68.20;;;;;;5094975;28;20265;-63
2023/09/17 05:28:06;;;;;;;12.35;6.28;;;22.10;68.30;;;;;;5095133;28;20238;-64
2023/09/17 05:30:34;;;;;;;12.73;6.85;;;22.10;68.20;;;;;;5095230;28;20248;-63
2023/09/17 05:33:01;;;;;;;9.98;5.63;;;22.10;68.20;;;;;;5095462;28;20214;-61
2023/09/17 05:35:28;;;;;;;12.23;6.55;;;22.10;68.20;;;;;;5095199;28;20191;-60
2023/09/17 05:37:57;;;;;;;11.07;6.18;;;22.00;68.20;;;;;;5095137;28;20214;-64
2023/09/17 05:40:24;;;;;;;12.48;6.47;;;22.10;68.30;;;;;;5094785;28;20222;-62
2023/09/17 05:42:51;;;;;;;11.93;6.18;;;22.10;68.30;;;;;;5095205;28;20296;-64
2023/09/17 05:45:18;;;;;;;11.07;6.70;;;22.10;68.30;;;;;;5094896;28;20273;-61
2023/09/17 05:47:46;;;;;;;15.85;6.57;;;22.10;68.30;;;;;;5095006;28;20214;-63
2023/09/17 05:50:12;;;;;;;12.07;6.32;;;22.00;68.20;;;;;;5094831;28;20220;-64
2023/09/17 05:52:39;;;;;;;10.10;5.90;;;22.00;68.30;;;;;;5094685;28;20214;-63
2023/09/17 05:55:08;;;;;;;7.40;5.90;;;22.10;68.40;;;;;;5094014;28;20738;-63
2023/09/17 05:57:35;;;;;;;11.30;6.25;;;22.20;68.50;;;;;;5094970;28;20214;-61
2023/09/17 06:00:04;;;;;;;10.20;6.15;;;22.10;68.40;;;;;;5094482;28;20225;-61
2023/09/17 06:02:31;;;;;;;11.45;6.03;;;22.10;68.50;;;;;;5094515;28;20564;-64
2023/09/17 06:04:58;;;;;;;9.43;6.28;;;22.10;68.40;;;;;;5094689;28;20186;-63
2023/09/17 06:07:25;;;;;;;12.20;6.90;;;22.10;68.40;;;;;;5094478;28;20259;-63
2023/09/17 06:09:52;;;;;;;13.57;6.45;;;22.10;68.40;;;;;;5093751;28;20670;-63
2023/09/17 06:12:20;;;;;;;10.82;5.90;;;22.10;68.50;;;;;;5094650;28;20217;-63
2023/09/17 06:14:47;;;;;;;13.10;6.65;;;22.10;68.60;;;;;;5094309;28;20273;-57
2023/09/17 06:17:14;;;;;;;10.75;6.00;;;22.10;68.60;;;;;;5094091;28;20602;-63
2023/09/17 06:19:42;;;;;;;10.43;6.43;;;22.10;68.60;;;;;;5094245;28;20277;-60
2023/09/17 06:22:11;;;;;;;10.70;6.78;;;22.00;68.50;;;;;;5094063;28;20228;-64
2023/09/17 06:24:38;;;;;;;9.52;6.00;;;22.10;68.70;;;;;;5093704;28;20190;-61
2023/09/17 06:27:05;;;;;;;14.55;6.40;;;22.10;68.80;;;;;;5094029;28;20791;-61
2023/09/17 06:29:33;;;;;;;8.80;5.57;;;22.10;68.80;;;;;;5094100;28;20245;-61
2023/09/17 06:32:01;;;;;;;11.13;6.47;;;22.10;68.80;;;;;;5094008;28;20660;-60
2023/09/17 06:34:27;;;;;;;10.77;6.70;;;22.10;68.80;;;;;;5093994;28;20783;-59
2023/09/17 06:36:55;;;;;;;9.35;6.07;;;22.10;68.90;;;;;;5093889;28;20186;-60
2023/09/17 06:39:22;;;;;;;13.27;6.28;;;22.00;68.80;;;;;;5093660;28;20622;-64
2023/09/17 06:41:49;;;;;;;10.13;5.70;;;22.00;68.80;;;;;;5093938;28;20221;-59
2023/09/17 06:44:16;;;;;;;12.02;5.80;;;22.10;68.90;;;;;;5093947;28;20214;-64
2023/09/17 06:46:44;;;;;;;9.57;6.00;;;22.10;69.00;;;;;;5093625;28;20662;-55
2023/09/17 06:49:11;;;;;;;9.25;6.38;;;22.10;69.00;;;;;;5093869;28;20210;-63
2023/09/17 06:51:39;;;;;;;11.45;6.68;;;22.10;69.00;;;;;;5093581;28;20276;-59
2023/09/17 06:54:06;;;;;;;11.70;6.68;;;22.00;68.90;;;;;;5093317;28;20297;-56
2023/09/17 06:56:33;;;;;;;10.70;6.32;;;22.00;68.90;;;;;;5093802;28;20186;-60
2023/09/17 06:59:00;;;;;;;8.43;6.07;;;22.10;69.10;;;;;;5093479;28;20220;-60
2023/09/17 07:01:27;;;;;;;11.27;5.82;;;22.10;69.00;;;;;;5092582;28;20305;-61
2023/09/17 07:03:55;;;;;;;13.05;6.60;;;22.10;69.10;;;;;;5093698;28;20249;-60
2023/09/17 07:06:23;;;;;;;9.77;5.55;;;22.10;69.10;;;;;;5085221;28;20251;-60
2023/09/17 07:08:52;;;;;;;8.52;5.93;;;22.00;69.00;;;;;;5092752;28;20304;-56
2023/09/17 07:11:19;;;;;;;8.60;5.70;;;22.10;69.20;;;;;;5093509;28;20255;-57
2023/09/17 07:13:46;;;;;;;10.30;6.10;;;22.10;69.20;;;;;;5093135;28;20214;-53
2023/09/17 07:16:14;;;;;;;10.95;6.30;;;22.10;69.20;;;;;;5093106;28;20263;-61
2023/09/17 07:18:41;;;;;;;9.55;6.20;;;22.10;69.20;;;;;;5093389;28;20225;-61
2023/09/17 07:21:09;;;;;;;9.93;5.88;;;22.10;69.40;;;;;;5092628;28;20786;-62
2023/09/17 07:23:36;;;;;;;10.40;5.63;;;22.10;69.40;;;;;;5092569;28;20218;-62
2023/09/17 07:26:03;;;;;;;8.57;5.72;;;22.00;69.20;;;;;;5093016;28;20308;-59
2023/09/17 07:28:30;;;;;;;8.75;5.75;;;22.00;69.20;;;;;;5093093;28;20228;-57
2023/09/17 07:30:57;;;;;;;10.13;5.70;;;22.00;69.20;;;;;;5093142;28;20247;-59
2023/09/17 07:33:24;;;;;;;9.85;5.47;;;22.00;69.20;;;;;;5092640;28;20210;-55
2023/09/17 07:35:52;;;;;;;8.48;5.30;;;22.10;69.30;;;;;;5092776;28;20209;-57
2023/09/17 07:38:21;;;;;;;7.50;5.20;;;22.10;69.30;;;;;;5092048;28;20225;-59
2023/09/17 07:40:48;;;;;;;7.50;5.03;;;22.00;69.20;;;;;;5092878;28;20218;-61
2023/09/17 07:43:15;;;;;;;7.45;5.40;;;22.00;69.20;;;;;;5092442;28;20255;-57
2023/09/17 07:45:41;;;;;;;10.38;5.72;;;22.00;69.30;;;;;;5092438;28;20673;-57
2023/09/17 07:48:08;;;;;;;7.95;4.72;;;22.10;69.30;;;;;;5092790;28;20214;-55
2023/09/17 07:50:35;;;;;;;6.75;4.78;;;22.10;69.40;;;;;;5092313;28;20702;-58
2023/09/17 07:53:03;;;;;;;7.38;5.03;;;22.10;69.40;;;;;;5092114;28;20301;-54
2023/09/17 07:55:31;;;;;;;9.50;5.75;;;22.10;69.40;;;;;;5092674;28;20197;-55
2023/09/17 07:57:58;;;;;;;7.45;5.03;;;22.10;69.30;;;;;;5092447;28;20221;-58
2023/09/17 08:00:25;;;;;;;9.70;5.07;;;22.10;69.40;;;;;;5092592;28;20196;-56
2023/09/17 08:02:52;;;;;;;6.97;5.28;;;22.10;69.40;;;;;;5092288;28;20244;-56
2023/09/17 08:05:19;;;;;;;7.00;5.10;;;22.00;69.30;;;;;;5092415;28;20254;-58
2023/09/17 08:07:46;;;;;;;6.00;4.70;;;22.00;69.30;;;;;;5092233;28;20740;-55
2023/09/17 08:10:14;;;;;;;7.25;4.72;;;22.00;69.40;;;;;;5091827;28;20186;-56
2023/09/17 08:12:42;;;;;;;6.82;4.53;;;22.00;69.40;;;;;;5092202;28;20278;-54
2023/09/17 08:15:10;;;;;;;10.73;4.63;;;22.00;69.40;;;;;;5092378;28;20303;-54
2023/09/17 08:17:37;;;;;;;5.78;4.20;;;22.00;69.40;;;;;;5092523;28;20276;-55
2023/09/17 08:20:07;;;;;;;7.03;4.85;;;22.00;69.40;;;;;;5091919;28;20193;-60
2023/09/17 08:22:34;;;;;;;5.75;4.50;;;22.00;69.40;;;;;;5091985;28;20210;-59
2023/09/17 08:25:01;;;;;;;7.50;4.10;;;22.00;69.40;;;;;;5091792;28;20285;-59
2023/09/17 08:27:28;;;;;;;7.20;4.78;;;22.00;69.60;;;;;;5091791;28;20665;-58
2023/09/17 08:29:58;;;;;;;6.85;4.40;;;22.00;69.50;;;;;;5092170;28;20297;-59
2023/09/17 08:32:25;;;;;;;5.10;4.43;;;22.10;69.60;;;;;;5092366;28;20213;-58
2023/09/17 08:34:52;;;;;;;8.05;4.20;;;22.00;70.30;;;;;;5092052;28;20190;-58
2023/09/17 08:37:19;;;;;;;5.20;4.20;;;22.00;69.60;;;;;;5091923;28;20273;-61
2023/09/17 08:39:46;;;;;;;7.68;4.85;;;22.00;69.60;;;;;;5091872;28;20268;-57
2023/09/17 08:42:14;;;;;;;8.52;4.30;;;22.00;69.60;;;;;;5091679;28;20827;-60
2023/09/17 08:44:43;;;;;;;6.22;4.35;;;22.00;69.60;;;;;;5092303;28;20275;-59
2023/09/17 08:47:12;;;;;;;5.90;4.18;;;22.00;69.60;;;;;;5092252;28;20592;-57
2023/09/17 08:49:39;;;;;;;5.15;3.78;;;22.00;69.60;;;;;;5091619;28;20703;-61
2023/09/17 08:52:09;;;;;;;4.95;3.70;;;22.00;69.60;;;;;;5092101;28;20274;-62
2023/09/17 08:54:41;;;;;;;7.60;4.90;;;22.00;69.60;;;;;;5091720;28;20300;-60
2023/09/17 08:57:11;;;;;;;4.78;3.92;;;22.10;69.70;;;;;;5091885;28;20273;-60
2023/09/17 08:59:45;;;;;;;5.93;4.30;;;22.00;69.60;;;;;;5091900;28;20218;-55
2023/09/17 09:02:25;;;;;;;5.03;3.88;;;22.00;69.70;;;;;;5091650;28;20263;-61
2023/09/17 09:04:53;;;;;;;6.28;4.18;;;22.00;69.70;;;;;;5091962;28;20209;-59
2023/09/17 09:07:22;;;;;;;5.18;3.78;;;22.00;69.70;;;;;;5091906;28;20273;-59
2023/09/17 09:09:50;;;;;;;7.07;4.13;;;22.00;69.70;;;;;;5091810;28;20575;-59
2023/09/17 09:12:18;;;;;;;6.03;4.30;;;22.00;69.70;;;;;;5091412;28;20592;-60
2023/09/17 09:14:46;;;;;;;5.57;4.00;;;22.00;69.70;;;;;;5092065;28;20332;-60
2023/09/17 09:17:14;;;;;;;4.95;3.63;;;22.00;69.80;;;;;;5091911;28;20190;-59
2023/09/17 09:19:41;;;;;;;5.28;3.90;;;22.00;69.80;;;;;;5091482;28;20301;-58
2023/09/17 09:22:09;;;;;;;5.22;4.32;;;22.00;69.80;;;;;;5091844;28;20301;-59
2023/09/17 09:24:46;;;;;;;7.63;3.95;;;22.00;69.80;;;;;;5092163;28;20212;-59
2023/09/17 09:27:13;;;;;;;4.85;3.50;;;22.00;69.90;;;;;;5095087;28;20444;-59
2023/09/17 09:29:43;;;;;;;5.65;4.05;;;22.00;69.90;;;;;;5095456;28;20218;-59
2023/09/17 09:32:22;;;;;;;5.70;4.10;;;22.10;70.80;;;;;;5095144;28;20663;-60
2023/09/17 09:34:51;;;;;;;7.80;3.90;;;22.00;69.90;;;;;;5090571;28;20326;-62
2023/09/17 09:37:22;;;;;;;5.78;3.67;;;22.00;69.90;;;;;;5094775;28;20244;-56
2023/09/17 09:39:50;;;;;;;4.35;3.58;;;22.00;69.90;;;;;;5095034;28;20262;-62
2023/09/17 09:42:18;;;;;;;7.78;3.78;;;22.00;69.90;;;;;;5094640;28;20214;-61
2023/09/17 09:44:44;;;;;;;4.95;3.85;;;22.00;70.00;;;;;;5095337;28;20214;-60
2023/09/17 09:47:14;;;;;;;4.25;3.35;;;22.00;70.00;;;;;;5095105;28;20182;-60
2023/09/17 09:49:44;;;;;;;4.53;3.17;;;22.00;70.80;;;;;;5095062;28;20312;-62
2023/09/17 09:52:13;;;;;;;5.03;3.72;;;22.00;70.00;;;;;;5094611;28;20202;-56
2023/09/17 09:54:41;;;;;;;5.47;3.83;;;22.00;70.10;;;;;;5095192;28;20221;-58
2023/09/17 09:57:08;;;;;;;5.30;3.60;;;22.00;70.10;;;;;;5094649;28;20186;-60
2023/09/17 09:59:37;;;;;;;6.22;3.60;;;22.00;70.10;;;;;;5094912;28;20343;-57
2023/09/17 10:02:04;;;;;;;4.32;3.40;;;22.00;70.10;;;;;;5094692;28;20213;-61
2023/09/17 10:04:32;;;;;;;4.55;3.38;;;22.00;70.10;;;;;;5094717;28;20297;-62
2023/09/17 10:07:02;;;;;;;5.25;3.50;;;22.00;70.10;;;;;;5094720;28;20276;-58
2023/09/17 10:09:29;;;;;;;8.13;3.22;;;22.00;70.10;;;;;;5094613;28;20617;-60
2023/09/17 10:11:57;;;;;;;8.80;3.70;;;22.00;70.10;;;;;;5094154;28;20190;-61
2023/09/17 10:14:26;;;;;;;4.60;3.42;;;22.10;70.20;;;;;;5094411;28;20221;-60
2023/09/17 10:16:55;;;;;;;7.10;3.40;;;22.00;70.10;;;;;;5094575;28;20267;-60
2023/09/17 10:19:24;;;;;;;5.07;3.42;;;22.00;70.10;;;;;;5094394;28;20210;-62
2023/09/17 10:21:53;;;;;;;5.80;3.38;;;22.00;70.20;;;;;;5094392;28;20224;-60
2023/09/17 10:24:23;;;;;;;4.28;3.45;;;22.00;70.20;;;;;;5093971;28;20279;-57
2023/09/17 10:26:51;;;;;;;3.55;3.25;;;22.00;70.20;;;;;;5093844;28;20308;-61
2023/09/17 10:29:20;;;;;;;3.58;3.00;;;22.00;70.20;;;;;;5094395;28;20214;-60
2023/09/17 10:31:48;;;;;;;3.65;3.15;;;22.00;70.20;;;;;;5094270;28;20259;-59
2023/09/17 10:34:18;;;;;;;5.38;3.42;;;22.00;70.20;;;;;;5094079;28;20305;-59
2023/09/17 10:36:47;;;;;;;3.35;3.00;;;22.10;70.30;;;;;;5092972;28;20277;-58
2023/09/17 10:39:15;;;;;;;5.13;3.25;;;22.00;70.20;;;;;;5093498;28;20214;-61
2023/09/17 10:41:48;;;;;;;3.85;3.15;;;22.00;70.20;;;;;;5093776;28;20210;-61
2023/09/17 10:44:17;;;;;;;4.65;3.28;;;22.10;70.40;;;;;;5093774;28;20213;-58
2023/09/17 10:46:46;;;;;;;5.57;3.38;;;22.00;70.30;;;;;;5094005;28;20182;-62
2023/09/17 10:49:14;;;;;;;4.30;3.08;;;22.00;70.30;;;;;;5093444;28;20214;-59
2023/09/17 10:51:44;;;;;;;4.20;3.13;;;22.00;70.30;;;;;;5093593;28;20823;-61
2023/09/17 10:54:11;;;;;;;5.45;3.20;;;22.10;70.40;;;;;;5093647;28;20301;-60
2023/09/17 10:56:41;;;;;;;4.60;3.00;;;22.00;70.30;;;;;;5093304;28;20675;-61
2023/09/17 10:59:12;;;;;;;3.85;3.10;;;22.10;70.50;;;;;;5093432;28;20756;-61
2023/09/17 11:01:41;;;;;;;5.15;3.67;;;22.00;71.10;;;;;;5093653;28;20182;-63
2023/09/17 11:04:12;;;;;;;4.63;2.95;;;22.10;70.40;;;;;;5093719;28;20213;-60
2023/09/17 11:06:41;;;;;;;4.93;3.15;;;22.10;70.40;;;;;;5093375;28;20197;-53
2023/09/17 11:09:08;;;;;;;3.85;2.75;;;22.10;70.50;;;;;;5093607;28;20218;-59
2023/09/17 11:11:36;;;;;;;3.70;3.05;;;22.10;70.50;;;;;;5093253;28;20250;-59
2023/09/17 11:14:04;;;;;;;4.30;2.97;;;22.10;70.50;;;;;;5093150;28;20297;-60
2023/09/17 11:16:35;;;;;;;3.90;2.80;;;22.10;70.50;;;;;;5093360;28;20198;-57
2023/09/17 11:19:06;;;;;;;3.58;3.08;;;22.20;70.60;;;;;;5093098;28;20214;-58
2023/09/17 11:21:36;;;;;;;4.28;2.75;;;22.00;70.40;;;;;;5092825;28;20186;-54
2023/09/17 11:24:06;;;;;;;6.53;3.20;;;22.10;70.50;;;;;;5092867;28;20217;-59
2023/09/17 11:26:34;;;;;;;3.45;2.67;;;22.10;70.50;;;;;;5092732;28;20229;-59
2023/09/17 11:29:05;;;;;;;4.53;3.30;;;22.00;70.30;;;;;;5092975;28;20780;-59
2023/09/17 11:31:36;;;;;;;4.10;2.40;;;22.10;70.50;;;;;;5093163;28;20220;-61
2023/09/17 11:34:08;;;;;;;5.20;3.50;;;22.10;70.50;;;;;;5093029;28;20214;-58
2023/09/17 11:36:35;;;;;;;4.30;3.05;;;22.10;70.50;;;;;;5092402;28;20277;-54
2023/09/17 11:39:07;;;;;;;4.95;3.20;;;22.10;70.50;;;;;;5092617;28;20214;-57
2023/09/17 11:41:40;;;;;;;4.55;3.03;;;22.10;70.50;;;;;;5093013;28;20190;-52
2023/09/17 11:44:08;;;;;;;3.28;2.90;;;22.10;70.50;;;;;;5092930;28;20214;-52
2023/09/17 11:46:37;;;;;;;4.43;3.10;;;22.10;70.50;;;;;;5092743;28;20215;-61
2023/09/17 11:49:08;;;;;;;3.83;2.90;;;22.10;70.60;;;;;;5092593;28;20218;-58
2023/09/17 11:51:35;;;;;;;4.47;3.00;;;22.10;70.60;;;;;;5091825;28;20182;-62
2023/09/17 11:54:03;;;;;;;3.90;2.92;;;22.10;70.60;;;;;;5092583;28;20304;-61
2023/09/17 11:56:32;;;;;;;4.15;2.80;;;22.10;70.60;;;;;;5092813;28;20190;-63
2023/09/17 11:59:00;;;;;;;3.42;2.90;;;22.20;70.70;;;;;;5092682;28;20218;-62
2023/09/17 12:01:29;;;;;;;3.03;2.70;;;22.10;70.60;;;;;;5092075;28;20643;-61
2023/09/17 12:03:58;;;;;;;4.65;2.92;;;22.10;70.70;;;;;;5092533;28;20236;-61
2023/09/17 12:06:30;;;;;;;3.75;2.88;;;22.10;70.70;;;;;;5091892;28;20316;-60
2023/09/17 12:09:05;;;;;;;3.78;2.90;;;22.10;70.60;;;;;;5092409;28;20222;-62
2023/09/17 12:11:32;;;;;;;3.13;2.80;;;22.20;70.80;;;;;;5092495;28;20188;-62
2023/09/17 12:14:00;;;;;;;3.47;3.00;;;22.20;70.80;;;;;;5092529;28;20218;-61
2023/09/17 12:16:29;;;;;;;4.28;2.97;;;22.20;70.80;;;;;;5092271;28;20190;-62
2023/09/17 12:18:57;;;;;;;4.03;2.92;;;22.10;70.70;;;;;;5092576;28;20214;-62
2023/09/17 12:21:27;;;;;;;4.43;2.70;;;22.10;70.70;;;;;;5091891;28;20186;-61
2023/09/17 12:23:57;;;;;;;4.03;2.90;;;22.20;70.80;;;;;;5091947;28;20241;-62
2023/09/17 12:26:31;;;;;;;3.05;2.60;;;22.20;70.80;;;;;;5092140;28;20218;-59
2023/09/17 12:28:59;;;;;;;4.03;2.85;;;22.10;70.70;;;;;;5092376;28;20220;-61
2023/09/17 12:31:27;;;;;;;3.63;2.90;;;22.20;71.60;;;;;;5091806;28;20602;-60
2023/09/17 12:33:54;;;;;;;3.28;2.67;;;22.20;70.80;;;;;;5092307;28;20218;-61
2023/09/17 12:36:23;;;;;;;4.07;2.88;;;22.20;70.80;;;;;;5091717;28;20193;-60
2023/09/17 12:38:50;;;;;;;3.92;2.72;;;22.20;70.90;;;;;;5091829;28;20225;-63
2023/09/17 12:41:17;;;;;;;3.90;3.03;;;22.20;70.90;;;;;;5092282;28;20194;-58
2023/09/17 12:43:46;;;;;;;3.60;2.83;;;22.10;70.80;;;;;;5092160;28;20229;-62
2023/09/17 12:46:13;;;;;;;3.38;2.40;;;22.10;70.80;;;;;;5091645;28;20197;-57
2023/09/17 12:48:41;;;;;;;3.75;2.58;;;22.10;70.90;;;;;;5092261;28;20297;-59
2023/09/17 12:51:10;;;;;;;4.28;2.70;;;22.10;70.90;;;;;;5091260;28;20287;-56
2023/09/17 12:53:39;;;;;;;3.45;2.65;;;22.10;71.00;;;;;;5091934;28;20275;-61
2023/09/17 12:56:07;;;;;;;3.65;2.60;;;22.20;71.10;;;;;;5091827;28;20552;-60
2023/09/17 12:58:34;;;;;;;3.30;2.65;;;22.20;71.90;;;;;;5092078;28;20233;-60